createdAt,value
2019-05-19T00:00:17.731Z,14.90
2019-05-19T00:02:48.145Z,14.90
2019-05-19T00:05:18.703Z,14.90
2019-05-19T00:07:49.283Z,14.80
2019-05-19T00:10:19.639Z,14.70
2019-05-19T00:12:50.049Z,14.80
2019-05-19T00:15:20.426Z,14.80
2019-05-19T00:17:50.816Z,14.80
2019-05-19T00:20:21.193Z,14.80
2019-05-19T00:22:51.796Z,14.70
2019-05-19T00:25:22.225Z,14.70
2019-05-19T00:27:52.546Z,14.70
2019-05-19T00:30:22.928Z,14.70
2019-05-19T00:32:53.367Z,14.70
2019-05-19T00:35:23.806Z,14.70
2019-05-19T00:37:54.467Z,14.70
2019-05-19T00:40:25.265Z,14.70
2019-05-19T00:42:55.786Z,14.80
2019-05-19T00:45:26.190Z,14.80
2019-05-19T00:47:56.782Z,14.80
2019-05-19T00:50:27.336Z,14.80
2019-05-19T00:52:57.963Z,14.80
2019-05-19T00:55:28.543Z,14.80
2019-05-19T00:57:59.764Z,14.80
2019-05-19T01:00:30.364Z,14.90
2019-05-19T01:03:00.875Z,14.90
2019-05-19T01:05:31.236Z,14.90
2019-05-19T01:08:01.811Z,14.90
2019-05-19T01:10:32.444Z,14.90
2019-05-19T01:13:02.837Z,14.80
2019-05-19T01:15:33.361Z,14.80
2019-05-19T01:18:03.807Z,14.70
2019-05-19T01:20:35.025Z,14.70
2019-05-19T01:23:05.524Z,14.60
2019-05-19T01:25:35.990Z,14.60
2019-05-19T01:28:06.350Z,14.60
2019-05-19T01:30:36.776Z,14.60
2019-05-19T01:33:07.103Z,14.60
2019-05-19T01:35:37.586Z,14.60
2019-05-19T01:38:08.016Z,14.60
2019-05-19T01:40:38.345Z,14.60
2019-05-19T01:43:08.698Z,14.60
2019-05-19T01:45:39.081Z,14.60
2019-05-19T01:48:09.406Z,14.50
2019-05-19T01:50:39.767Z,14.50
2019-05-19T01:53:10.189Z,14.50
2019-05-19T01:55:40.596Z,14.50
2019-05-19T01:58:11.043Z,14.50
2019-05-19T02:00:41.455Z,14.40
2019-05-19T02:03:11.793Z,14.40
2019-05-19T02:05:42.330Z,14.40
2019-05-19T02:08:13.249Z,14.40
2019-05-19T02:10:43.656Z,14.30
2019-05-19T02:13:14.096Z,14.30
2019-05-19T02:15:44.516Z,14.30
2019-05-19T02:18:15.045Z,14.20
2019-05-19T02:20:45.707Z,14.20
2019-05-19T02:23:16.118Z,14.10
2019-05-19T02:25:46.495Z,14.00
2019-05-19T02:28:16.855Z,14.00
2019-05-19T02:30:47.322Z,14.00
2019-05-19T02:33:17.757Z,14.00
2019-05-19T02:35:48.167Z,13.90
2019-05-19T02:38:18.615Z,13.90
2019-05-19T02:40:55.572Z,13.90
2019-05-19T02:43:26.422Z,13.80
2019-05-19T02:46:02.061Z,13.80
2019-05-19T02:48:34.918Z,13.80
2019-05-19T02:51:07.991Z,13.90
2019-05-19T02:53:39.682Z,13.90
2019-05-19T02:56:10.203Z,13.90
2019-05-19T02:58:41.271Z,14.00
2019-05-19T03:01:11.801Z,13.90
2019-05-19T03:03:42.196Z,13.90
2019-05-19T03:06:12.641Z,13.90
2019-05-19T03:08:43.696Z,13.90
2019-05-19T03:11:14.081Z,13.90
2019-05-19T03:13:44.513Z,14.00
2019-05-19T03:16:14.892Z,14.00
2019-05-19T03:18:45.263Z,14.00
2019-05-19T03:21:15.666Z,13.90
2019-05-19T03:23:45.993Z,13.90
2019-05-19T03:26:16.320Z,13.90
2019-05-19T03:28:46.892Z,13.90
2019-05-19T03:31:30.841Z,13.90
2019-05-19T03:34:01.222Z,13.90
2019-05-19T03:36:31.723Z,13.90
2019-05-19T03:39:02.187Z,13.90
2019-05-19T03:41:32.601Z,13.90
2019-05-19T03:44:03.494Z,13.90
2019-05-19T03:46:33.818Z,13.90
2019-05-19T03:49:04.269Z,13.80
2019-05-19T03:51:34.627Z,13.80
2019-05-19T03:54:05.090Z,13.70
2019-05-19T03:56:36.154Z,13.70
2019-05-19T03:59:06.530Z,13.80
2019-05-19T04:01:36.928Z,13.80
2019-05-19T04:04:07.361Z,13.80
2019-05-19T04:06:38.006Z,13.90
2019-05-19T04:09:08.747Z,13.90
2019-05-19T04:11:39.253Z,14.00
2019-05-19T04:14:09.678Z,14.00
2019-05-19T04:16:40.028Z,14.10
2019-05-19T04:19:10.393Z,14.20
2019-05-19T04:21:48.732Z,14.20
2019-05-19T04:24:12.846Z,14.20
2019-05-19T04:26:43.201Z,14.20
2019-05-19T04:29:13.599Z,14.10
2019-05-19T04:31:43.928Z,13.90
2019-05-19T04:34:14.402Z,13.90
2019-05-19T04:36:44.760Z,13.90
2019-05-19T04:39:15.096Z,13.80
2019-05-19T04:41:45.857Z,13.80
2019-05-19T04:44:16.177Z,13.90
2019-05-19T04:46:46.526Z,13.80
2019-05-19T04:49:16.918Z,13.80
2019-05-19T04:51:56.854Z,13.80
2019-05-19T04:54:19.692Z,13.80
2019-05-19T04:56:50.295Z,13.80
2019-05-19T04:59:20.711Z,13.80
2019-05-19T05:01:51.075Z,13.80
2019-05-19T05:04:21.457Z,13.70
2019-05-19T05:06:51.951Z,13.70
2019-05-19T05:09:22.431Z,13.70
2019-05-19T05:11:52.886Z,13.70
2019-05-19T05:14:23.437Z,13.70
2019-05-19T05:16:53.785Z,13.70
2019-05-19T05:19:24.187Z,13.70
2019-05-19T05:21:54.594Z,13.70
2019-05-19T05:24:28.477Z,13.70
2019-05-19T05:26:57.187Z,13.70
2019-05-19T05:29:27.505Z,13.70
2019-05-19T05:31:57.882Z,13.80
2019-05-19T05:34:28.291Z,13.80
2019-05-19T05:36:58.914Z,13.90
2019-05-19T05:39:29.350Z,13.90
2019-05-19T05:41:59.827Z,13.90
2019-05-19T05:44:30.176Z,13.90
2019-05-19T05:47:00.555Z,13.90
2019-05-19T05:49:30.901Z,13.90
2019-05-19T05:52:01.249Z,13.90
2019-05-19T05:54:31.648Z,13.80
2019-05-19T05:57:02.014Z,13.80
2019-05-19T05:59:32.395Z,13.80
2019-05-19T06:02:02.775Z,13.80
2019-05-19T06:04:33.191Z,13.80
2019-05-19T06:07:03.537Z,13.80
2019-05-19T06:09:33.992Z,13.80
2019-05-19T06:12:04.630Z,13.80
2019-05-19T06:14:34.980Z,13.80
2019-05-19T06:17:05.357Z,13.80
2019-05-19T06:19:35.747Z,13.90
2019-05-19T06:22:06.187Z,13.90
2019-05-19T06:24:36.518Z,13.80
2019-05-19T06:27:06.948Z,13.90
2019-05-19T06:29:37.406Z,13.90
2019-05-19T06:32:18.203Z,13.90
2019-05-19T06:34:48.648Z,13.80
2019-05-19T06:37:19.122Z,13.80
2019-05-19T06:39:49.537Z,13.80
2019-05-19T06:42:19.878Z,13.80
2019-05-19T06:44:50.210Z,13.80
2019-05-19T06:47:20.731Z,13.80
2019-05-19T06:49:51.195Z,13.80
2019-05-19T06:52:21.648Z,13.80
2019-05-19T06:54:52.158Z,13.90
2019-05-19T06:57:22.492Z,13.90
2019-05-19T06:59:52.896Z,14.00
2019-05-19T07:02:23.496Z,14.00
2019-05-19T07:04:53.832Z,14.10
2019-05-19T07:07:24.301Z,14.00
2019-05-19T07:09:58.515Z,13.90
2019-05-19T07:12:26.892Z,13.90
2019-05-19T07:14:57.305Z,13.90
2019-05-19T07:17:27.754Z,13.90
2019-05-19T07:19:58.146Z,13.90
2019-05-19T07:22:28.499Z,13.90
2019-05-19T07:24:59.923Z,14.00
2019-05-19T07:27:30.445Z,14.00
2019-05-19T07:30:01.005Z,14.00
2019-05-19T07:32:31.744Z,14.00
2019-05-19T07:35:02.291Z,14.00
2019-05-19T07:37:33.306Z,14.00
2019-05-19T07:40:05.032Z,14.00
2019-05-19T07:42:35.736Z,14.00
2019-05-19T07:45:07.660Z,14.00
2019-05-19T07:47:38.027Z,14.00
2019-05-19T07:50:08.409Z,13.90
2019-05-19T07:52:38.912Z,13.90
2019-05-19T07:55:09.551Z,13.90
2019-05-19T07:57:40.294Z,13.90
2019-05-19T08:00:11.960Z,13.90
2019-05-19T08:02:42.324Z,13.90
2019-05-19T08:05:12.697Z,14.00
2019-05-19T08:07:43.026Z,14.00
2019-05-19T08:10:13.523Z,14.00
2019-05-19T08:12:44.008Z,14.00
2019-05-19T08:15:14.437Z,14.00
2019-05-19T08:17:44.763Z,14.00
2019-05-19T08:20:16.027Z,13.90
2019-05-19T08:22:46.361Z,13.90
2019-05-19T08:25:16.700Z,13.90
2019-05-19T08:27:47.148Z,13.80
2019-05-19T08:30:17.726Z,13.80
2019-05-19T08:32:48.216Z,13.80
2019-05-19T08:35:18.545Z,13.80
2019-05-19T08:37:49.007Z,13.80
2019-05-19T08:40:19.514Z,13.80
2019-05-19T08:42:49.828Z,13.90
2019-05-19T08:45:20.144Z,13.90
2019-05-19T08:47:50.491Z,13.90
2019-05-19T08:50:20.816Z,14.00
2019-05-19T08:52:51.187Z,14.10
2019-05-19T08:55:21.534Z,14.10
2019-05-19T08:57:51.881Z,14.20
2019-05-19T09:00:22.215Z,14.30
2019-05-19T09:02:52.664Z,14.50
2019-05-19T09:05:23.025Z,14.60
2019-05-19T09:07:53.655Z,14.70
2019-05-19T09:10:24.026Z,14.70
2019-05-19T09:12:54.537Z,14.70
2019-05-19T09:15:24.857Z,14.80
2019-05-19T09:17:55.274Z,14.80
2019-05-19T09:20:25.644Z,14.80
2019-05-19T09:22:55.996Z,14.80
2019-05-19T09:25:26.436Z,14.70
2019-05-19T09:27:56.787Z,14.70
2019-05-19T09:30:27.142Z,14.60
2019-05-19T09:32:57.501Z,14.50
2019-05-19T09:35:27.853Z,14.40
2019-05-19T09:37:58.668Z,14.30
2019-05-19T09:40:29.029Z,14.30
2019-05-19T09:42:59.423Z,14.40
2019-05-19T09:45:29.730Z,14.40
2019-05-19T09:48:00.112Z,14.40
2019-05-19T09:50:30.433Z,14.50
2019-05-19T09:53:00.773Z,14.50
2019-05-19T09:55:31.140Z,14.50
2019-05-19T09:58:01.515Z,14.60
2019-05-19T10:00:31.980Z,14.60
2019-05-19T10:03:03.184Z,14.60
2019-05-19T10:05:33.607Z,14.70
2019-05-19T10:08:04.077Z,14.80
2019-05-19T10:11:22.312Z,14.90
2019-05-19T10:13:52.670Z,14.90
2019-05-19T10:16:23.033Z,14.90
2019-05-19T10:18:53.370Z,14.90
2019-05-19T10:21:23.724Z,15.00
2019-05-19T10:23:54.044Z,15.10
2019-05-19T10:26:24.615Z,15.20
2019-05-19T10:28:55.002Z,15.30
2019-05-19T10:31:25.326Z,15.40
2019-05-19T10:33:55.677Z,15.40
2019-05-19T10:36:26.304Z,15.50
2019-05-19T10:38:56.740Z,15.50
2019-05-19T10:41:27.134Z,15.50
2019-05-19T10:44:00.925Z,15.50
2019-05-19T10:46:31.931Z,15.40
2019-05-19T10:49:02.286Z,15.40
2019-05-19T10:51:32.659Z,15.30
2019-05-19T10:54:03.087Z,15.30
2019-05-19T10:56:33.419Z,15.30
2019-05-19T10:59:03.783Z,15.40
2019-05-19T11:01:34.201Z,15.50
2019-05-19T11:04:04.585Z,15.60
2019-05-19T11:06:35.084Z,15.60
2019-05-19T11:09:06.378Z,15.50
2019-05-19T11:11:36.741Z,15.50
2019-05-19T11:14:07.099Z,15.50
2019-05-19T11:16:37.506Z,15.50
2019-05-19T11:19:07.952Z,15.60
2019-05-19T11:21:38.320Z,15.60
2019-05-19T11:24:08.745Z,15.50
2019-05-19T11:26:39.102Z,15.60
2019-05-19T11:29:09.608Z,15.50
2019-05-19T11:31:40.021Z,15.40
2019-05-19T11:34:10.538Z,15.30
2019-05-19T11:36:41.167Z,15.30
2019-05-19T11:39:11.707Z,15.40
2019-05-19T11:41:42.029Z,15.40
2019-05-19T11:44:12.545Z,15.50
2019-05-19T11:46:43.144Z,15.60
2019-05-19T11:49:13.463Z,15.60
2019-05-19T11:51:43.800Z,15.70
2019-05-19T11:54:14.150Z,15.70
2019-05-19T11:56:44.484Z,15.70
2019-05-19T11:59:14.821Z,15.70
2019-05-19T12:01:45.200Z,15.80
2019-05-19T12:04:15.542Z,15.70
2019-05-19T12:06:46.169Z,15.60
2019-05-19T12:09:16.529Z,15.60
2019-05-19T12:11:46.885Z,15.70
2019-05-19T12:14:17.261Z,15.70
2019-05-19T12:16:47.768Z,15.80
2019-05-19T12:19:18.308Z,15.90
2019-05-19T12:21:48.774Z,16.30
2019-05-19T12:24:19.132Z,16.80
2019-05-19T12:26:49.448Z,16.90
2019-05-19T12:29:19.812Z,16.80
2019-05-19T12:31:50.263Z,16.50
2019-05-19T12:34:20.605Z,16.40
2019-05-19T12:36:51.283Z,16.30
2019-05-19T12:39:21.622Z,16.40
2019-05-19T12:41:51.949Z,16.50
2019-05-19T12:44:22.348Z,16.70
2019-05-19T12:46:52.700Z,17.00
2019-05-19T12:49:23.279Z,17.30
2019-05-19T12:51:53.707Z,17.60
2019-05-19T12:54:24.053Z,17.60
2019-05-19T12:56:54.414Z,17.60
2019-05-19T12:59:24.780Z,17.60
2019-05-19T13:01:55.149Z,17.50
2019-05-19T13:04:25.505Z,17.50
2019-05-19T13:06:56.045Z,17.50
2019-05-19T13:09:26.492Z,17.40
2019-05-19T13:11:56.816Z,17.40
2019-05-19T13:14:27.146Z,17.50
2019-05-19T13:16:57.502Z,17.50
2019-05-19T13:19:27.882Z,17.50
2019-05-19T13:21:58.315Z,17.60
2019-05-19T13:24:28.760Z,17.60
2019-05-19T13:26:59.141Z,17.70
2019-05-19T13:29:30.311Z,17.70
2019-05-19T13:32:00.659Z,17.60
2019-05-19T13:34:31.077Z,17.60
2019-05-19T13:37:01.587Z,17.60
2019-05-19T13:39:31.985Z,17.40
2019-05-19T13:42:02.374Z,17.40
2019-05-19T13:44:32.731Z,17.20
2019-05-19T13:47:03.068Z,17.20
2019-05-19T13:49:33.381Z,17.30
2019-05-19T13:52:03.747Z,17.30
2019-05-19T13:54:34.088Z,17.10
2019-05-19T13:57:12.388Z,17.10
2019-05-19T13:59:36.536Z,17.00
2019-05-19T14:02:06.868Z,16.80
2019-05-19T14:04:37.316Z,16.90
2019-05-19T14:07:07.914Z,17.00
2019-05-19T14:09:38.266Z,17.00
2019-05-19T14:12:08.669Z,17.00
2019-05-19T14:14:38.979Z,17.00
2019-05-19T14:17:09.310Z,17.00
2019-05-19T14:19:40.387Z,16.90
2019-05-19T14:22:10.746Z,16.90
2019-05-19T14:24:41.145Z,16.80
2019-05-19T14:27:14.212Z,16.80
2019-05-19T14:29:43.515Z,17.00
2019-05-19T14:32:13.926Z,17.10
2019-05-19T14:34:44.268Z,17.10
2019-05-19T14:37:15.043Z,17.00
2019-05-19T14:39:45.503Z,17.20
2019-05-19T14:42:24.148Z,17.20
2019-05-19T14:44:54.474Z,17.10
2019-05-19T14:47:24.928Z,17.00
2019-05-19T14:49:55.283Z,17.00
2019-05-19T14:52:25.648Z,16.90
2019-05-19T14:54:55.964Z,16.70
2019-05-19T14:57:26.300Z,16.50
2019-05-19T14:59:56.644Z,16.40
2019-05-19T15:02:26.974Z,16.40
2019-05-19T15:04:57.341Z,16.30
2019-05-19T15:07:27.987Z,16.20
2019-05-19T15:09:58.320Z,16.10
2019-05-19T15:12:28.656Z,15.90
2019-05-19T15:14:59.004Z,15.90
2019-05-19T15:17:29.314Z,15.90
2019-05-19T15:19:59.643Z,16.00
2019-05-19T15:22:29.992Z,16.00
2019-05-19T15:25:00.327Z,16.00
2019-05-19T15:27:30.652Z,16.00
2019-05-19T15:30:12.235Z,16.00
2019-05-19T15:32:33.127Z,16.10
2019-05-19T15:35:03.450Z,16.20
2019-05-19T15:37:33.912Z,16.20
2019-05-19T15:40:04.727Z,16.00
2019-05-19T15:42:35.061Z,15.80
2019-05-19T15:45:06.366Z,15.60
2019-05-19T15:47:36.689Z,15.50
2019-05-19T15:50:07.867Z,15.60
2019-05-19T15:52:38.241Z,15.50
2019-05-19T15:55:08.670Z,15.60
2019-05-19T15:57:39.200Z,15.40
2019-05-19T16:00:10.737Z,15.30
2019-05-19T16:02:41.225Z,15.20
2019-05-19T16:05:11.540Z,15.10
2019-05-19T16:07:42.322Z,15.10
2019-05-19T16:10:13.139Z,15.00
2019-05-19T16:12:43.548Z,14.90
2019-05-19T16:15:14.349Z,15.00
2019-05-19T16:17:44.681Z,15.00
2019-05-19T16:20:15.455Z,14.90
2019-05-19T16:22:45.811Z,14.80
2019-05-19T16:25:16.170Z,14.80
2019-05-19T16:27:46.581Z,14.80
2019-05-19T16:30:17.193Z,14.80
2019-05-19T16:32:47.549Z,14.80
2019-05-19T16:35:18.032Z,14.70
2019-05-19T16:37:48.668Z,14.50
2019-05-19T16:40:19.083Z,14.40
2019-05-19T16:42:49.422Z,14.40
2019-05-19T16:45:19.833Z,14.30
2019-05-19T16:47:50.291Z,14.30
2019-05-19T16:50:20.672Z,14.30
2019-05-19T16:52:51.022Z,14.30
2019-05-19T16:55:29.067Z,14.30
2019-05-19T16:57:59.493Z,14.30
2019-05-19T17:00:30.426Z,14.20
2019-05-19T17:03:00.746Z,14.30
2019-05-19T17:05:31.117Z,14.20
2019-05-19T17:08:01.618Z,14.10
2019-05-19T17:10:31.961Z,14.00
2019-05-19T17:13:02.354Z,14.00
2019-05-19T17:15:32.748Z,14.00
2019-05-19T17:18:03.045Z,14.00
2019-05-19T17:20:33.410Z,13.90
2019-05-19T17:23:03.790Z,13.90
2019-05-19T17:25:34.137Z,13.80
2019-05-19T17:28:04.556Z,13.80
2019-05-19T17:30:34.873Z,13.70
2019-05-19T17:33:05.203Z,13.70
2019-05-19T17:35:35.721Z,13.80
2019-05-19T17:38:06.393Z,13.80
2019-05-19T17:40:36.696Z,13.70
2019-05-19T17:43:07.030Z,13.60
2019-05-19T17:45:37.379Z,13.60
2019-05-19T17:48:09.898Z,13.60
2019-05-19T17:50:39.795Z,13.60
2019-05-19T17:53:10.138Z,13.60
2019-05-19T17:55:41.201Z,13.60
2019-05-19T17:58:11.519Z,13.60
2019-05-19T18:00:43.560Z,13.60
2019-05-19T18:03:14.760Z,13.50
2019-05-19T18:05:45.110Z,13.60
2019-05-19T18:08:15.614Z,13.60
2019-05-19T18:10:46.003Z,13.50
2019-05-19T18:13:16.348Z,13.40
2019-05-19T18:15:46.697Z,13.30
2019-05-19T18:18:17.067Z,13.30
2019-05-19T18:20:47.436Z,13.30
2019-05-19T18:23:17.799Z,13.30
2019-05-19T18:25:48.102Z,13.30
2019-05-19T18:28:18.429Z,13.40
2019-05-19T18:30:48.799Z,13.30
2019-05-19T18:33:19.612Z,13.20
2019-05-19T18:35:50.047Z,13.20
2019-05-19T18:38:20.649Z,13.10
2019-05-19T18:40:50.999Z,13.10
2019-05-19T18:43:21.470Z,13.10
2019-05-19T18:45:51.769Z,13.00
2019-05-19T18:48:23.373Z,13.00
2019-05-19T18:50:53.872Z,13.10
2019-05-19T18:53:24.316Z,13.10
2019-05-19T18:55:54.693Z,13.00
2019-05-19T18:58:25.179Z,12.90
2019-05-19T19:00:55.548Z,12.90
2019-05-19T19:03:25.875Z,12.90
2019-05-19T19:05:56.387Z,12.90
2019-05-19T19:08:27.005Z,12.90
2019-05-19T19:10:57.303Z,12.80
2019-05-19T19:13:27.954Z,12.70
2019-05-19T19:15:58.269Z,12.80
2019-05-19T19:18:28.633Z,12.70
2019-05-19T19:20:59.066Z,12.70
2019-05-19T19:23:29.493Z,12.70
2019-05-19T19:25:59.967Z,12.70
2019-05-19T19:28:30.322Z,12.80
2019-05-19T19:31:00.760Z,12.70
2019-05-19T19:33:31.149Z,12.80
2019-05-19T19:36:01.519Z,12.80
2019-05-19T19:38:32.518Z,12.80
2019-05-19T19:41:02.909Z,12.80
2019-05-19T19:43:33.290Z,12.80
2019-05-19T19:46:03.647Z,12.70
2019-05-19T19:48:34.066Z,12.80
2019-05-19T19:51:04.484Z,12.70
2019-05-19T19:53:34.984Z,12.70
2019-05-19T19:56:05.405Z,12.70
2019-05-19T19:58:35.776Z,12.70
2019-05-19T20:01:06.202Z,12.60
2019-05-19T20:03:40.049Z,12.50
2019-05-19T20:06:08.697Z,12.50
2019-05-19T20:08:39.100Z,12.40
2019-05-19T20:11:09.468Z,12.40
2019-05-19T20:13:39.913Z,12.30
2019-05-19T20:16:10.257Z,12.30
2019-05-19T20:18:40.636Z,12.30
2019-05-19T20:21:11.196Z,12.30
2019-05-19T20:23:41.516Z,12.30
2019-05-19T20:26:11.948Z,12.30
2019-05-19T20:28:42.310Z,12.20
2019-05-19T20:31:12.669Z,12.30
2019-05-19T20:33:43.033Z,12.30
2019-05-19T20:36:14.146Z,12.20
2019-05-19T20:38:44.540Z,12.20
2019-05-19T20:41:14.890Z,12.20
2019-05-19T20:43:45.271Z,12.10
2019-05-19T20:46:15.656Z,12.00
2019-05-19T20:48:46.037Z,12.00
2019-05-19T20:51:16.650Z,12.00
2019-05-19T20:53:46.965Z,12.00
2019-05-19T20:56:17.298Z,11.90
2019-05-19T20:58:47.712Z,11.90
2019-05-19T21:01:18.033Z,11.90
2019-05-19T21:03:48.367Z,11.80
2019-05-19T21:06:18.779Z,11.80
2019-05-19T21:08:49.139Z,11.80
2019-05-19T21:11:19.485Z,11.80
2019-05-19T21:13:49.838Z,11.90
2019-05-19T21:16:20.190Z,11.90
2019-05-19T21:18:50.573Z,11.90
2019-05-19T21:21:21.079Z,11.80
2019-05-19T21:23:51.440Z,11.90
2019-05-19T21:26:21.881Z,11.90
2019-05-19T21:28:52.335Z,11.90
2019-05-19T21:31:22.691Z,11.90
2019-05-19T21:33:53.152Z,11.90
2019-05-19T21:36:23.531Z,11.90
2019-05-19T21:38:53.900Z,11.90
2019-05-19T21:41:24.303Z,11.90
2019-05-19T21:43:54.847Z,11.80
2019-05-19T21:46:25.394Z,11.80
2019-05-19T21:48:55.751Z,11.80
2019-05-19T21:51:26.112Z,11.80
2019-05-19T21:53:56.459Z,11.80
2019-05-19T21:56:26.746Z,11.70
2019-05-19T21:58:57.177Z,11.70
2019-05-19T22:01:27.703Z,11.70
2019-05-19T22:03:58.035Z,11.70
2019-05-19T22:06:30.277Z,11.70
2019-05-19T22:09:00.732Z,11.70
2019-05-19T22:11:31.101Z,11.70
2019-05-19T22:14:01.476Z,11.70
2019-05-19T22:16:31.870Z,11.70
2019-05-19T22:19:02.231Z,11.70
2019-05-19T22:21:32.618Z,11.70
2019-05-19T22:24:02.953Z,11.70
2019-05-19T22:26:33.299Z,11.70
2019-05-19T22:29:03.676Z,11.60
2019-05-19T22:31:36.907Z,11.70
2019-05-19T22:34:06.055Z,11.60
2019-05-19T22:36:36.450Z,11.60
2019-05-19T22:39:07.861Z,11.60
2019-05-19T22:41:38.185Z,11.60
2019-05-19T22:44:08.708Z,11.60
2019-05-19T22:46:39.076Z,11.70
2019-05-19T22:49:09.394Z,11.80
2019-05-19T22:51:39.785Z,11.70
2019-05-19T22:54:10.158Z,11.70
2019-05-19T22:56:40.507Z,11.70
2019-05-19T22:59:19.257Z,11.70
2019-05-19T23:01:51.362Z,11.60
2019-05-19T23:04:15.045Z,11.60
2019-05-19T23:06:45.745Z,11.60
2019-05-19T23:09:16.072Z,11.60
2019-05-19T23:11:46.487Z,11.60
2019-05-19T23:14:16.829Z,11.60
2019-05-19T23:16:47.194Z,11.60
2019-05-19T23:19:17.695Z,11.60
2019-05-19T23:21:48.233Z,11.60
2019-05-19T23:24:18.585Z,11.60
2019-05-19T23:26:48.955Z,11.60
2019-05-19T23:29:19.322Z,11.60
2019-05-19T23:31:49.731Z,11.60
2019-05-19T23:34:20.243Z,11.60
2019-05-19T23:36:50.603Z,11.60
2019-05-19T23:39:20.952Z,11.60
2019-05-19T23:41:51.340Z,11.60
2019-05-19T23:44:21.708Z,11.50
2019-05-19T23:46:52.088Z,11.60
2019-05-19T23:49:22.473Z,11.60
2019-05-19T23:51:52.849Z,11.50
2019-05-19T23:54:23.277Z,11.60
2019-05-19T23:56:53.611Z,11.60
2019-05-19T23:59:23.994Z,11.60
